Time;durP1;ratioP1;P1;durP2;ratioP2;P2;SDS_P1;SDS_P2;PMS_P1;PMS_P2;Temp;Humidity;BMP_temperature;BMP_pressure;BME280_temperature;BME280_humidity;BME280_pressure;Samples;Min_cycle;Max_cycle;Signal;HPM_P1;HPM_P2
2021/01/16 00:07:17;;;;;;;25.95;13.30;;;;;;;-6.56;75.01;99763.77;494224;1143;65140;-61
2021/01/16 00:17:21;;;;;;;23.77;15.00;;;;;;;-6.57;74.73;99762.06;493966;1144;65184;-61
2021/01/16 00:27:26;;;;;;;28.10;13.90;;;;;;;-6.76;74.99;99755.06;494254;1143;65145;-64
2021/01/16 00:37:29;;;;;;;32.05;17.85;;;;;;;-6.78;74.98;99754.20;494500;1144;65494;-64
2021/01/16 00:47:36;;;;;;;35.50;16.83;;;;;;;-6.67;75.85;99761.10;493594;1143;65166;-59
2021/01/16 00:57:40;;;;;;;32.17;16.87;;;;;;;-6.71;75.90;99765.32;494187;1144;65261;-61
2021/01/16 01:07:47;;;;;;;31.90;13.70;;;;;;;-6.73;75.82;99767.02;494365;1143;65148;-62
2021/01/16 01:17:53;;;;;;;20.40;10.63;;;;;;;-6.64;75.65;99741.55;494492;1144;65145;-62
2021/01/16 01:27:58;;;;;;;17.37;8.37;;;;;;;-6.63;76.43;99738.16;493844;1144;65473;-61
2021/01/16 01:38:03;;;;;;;12.53;7.73;;;;;;;-6.69;76.39;99722.80;494448;1144;65122;-63
2021/01/16 01:48:09;;;;;;;17.27;9.63;;;;;;;-6.63;76.42;99717.72;494079;1143;65167;-63
2021/01/16 01:58:17;;;;;;;18.00;9.10;;;;;;;-6.44;77.21;99729.78;494020;1143;65211;-64
2021/01/16 02:08:21;;;;;;;12.77;8.13;;;;;;;-6.36;76.54;99723.03;493688;1144;65195;-63
2021/01/16 02:18:29;;;;;;;15.17;8.30;;;;;;;-6.30;76.72;99729.89;493273;1144;65114;-63
2021/01/16 02:28:36;;;;;;;14.80;11.00;;;;;;;-6.06;76.95;99724.93;494262;1144;65130;-61
2021/01/16 02:38:52;;;;;;;14.97;7.90;;;;;;;-5.93;76.98;99722.41;494084;1144;65114;-64
2021/01/16 02:49:11;;;;;;;17.30;8.55;;;;;;;-5.67;77.89;99721.67;494713;1143;65169;-63
2021/01/16 02:59:15;;;;;;;13.80;8.97;;;;;;;-5.68;78.51;99714.84;494727;1144;65442;-63
2021/01/16 03:09:20;;;;;;;14.17;9.37;;;;;;;-5.65;79.18;99708.05;493822;1143;65111;-62
2021/01/16 03:19:28;;;;;;;15.00;9.20;;;;;;;-5.57;78.94;99712.35;493714;1144;65445;-62
2021/01/16 03:29:31;;;;;;;16.77;9.33;;;;;;;-5.52;79.65;99705.53;493381;1144;66274;-62
2021/01/16 03:39:36;;;;;;;18.10;9.03;;;;;;;-5.46;79.64;99708.12;493567;1144;65139;-63
2021/01/16 03:49:40;;;;;;;11.87;8.07;;;;;;;-5.58;79.67;99705.53;493887;1144;65474;-63
2021/01/16 03:59:44;;;;;;;11.97;7.40;;;;;;;-5.55;80.36;99713.20;494242;1143;65647;-63
2021/01/16 04:09:48;;;;;;;13.95;7.50;;;;;;;-5.45;80.03;99711.52;493920;1144;65231;-64
2021/01/16 04:19:52;;;;;;;15.17;8.27;;;;;;;-5.51;80.28;99713.23;494026;1143;65241;-64
2021/01/16 04:29:56;;;;;;;11.20;7.00;;;;;;;-5.46;80.73;99709.81;493938;1144;65607;-64
2021/01/16 04:40:00;;;;;;;12.37;6.60;;;;;;;-5.49;80.95;99711.52;493816;1143;65113;-63
2021/01/16 04:50:08;;;;;;;8.13;6.00;;;;;;;-5.48;79.70;99702.16;493784;1144;65168;-63
2021/01/16 05:00:15;;;;;;;9.80;7.17;;;;;;;-5.55;80.63;99703.81;494327;1144;65249;-64
2021/01/16 05:10:22;;;;;;;12.13;6.93;;;;;;;-5.51;79.82;99697.88;494521;1143;65133;-64
2021/01/16 05:20:27;;;;;;;13.53;7.07;;;;;;;-5.52;79.67;99703.84;493707;1144;65134;-62
2021/01/16 05:30:31;;;;;;;10.93;6.23;;;;;;;-5.56;79.96;99699.54;494250;1143;65211;-63
2021/01/16 05:40:35;;;;;;;9.33;6.07;;;;;;;-5.56;80.08;99694.42;494582;1143;65184;-63
2021/01/16 05:50:41;;;;;;;11.38;7.00;;;;;;;-5.57;81.00;99690.16;494583;1143;65111;-64
2021/01/16 06:00:49;;;;;;;12.87;7.73;;;;;;;-5.53;80.22;99684.22;494004;1143;65118;-63
2021/01/16 06:10:54;;;;;;;11.30;7.00;;;;;;;-5.48;80.84;99676.56;492986;1143;65680;-63
2021/01/16 06:20:58;;;;;;;12.30;6.85;;;;;;;-5.35;81.44;99678.30;493272;1144;65200;-62
2021/01/16 06:31:04;;;;;;;12.97;7.20;;;;;;;-5.28;81.43;99681.72;493687;1144;65111;-63
2021/01/16 06:41:14;;;;;;;9.50;5.72;;;;;;;-5.19;81.24;99688.56;494028;1144;65187;-63
2021/01/16 06:51:26;;;;;;;9.87;6.70;;;;;;;-5.23;80.08;99663.81;494079;1144;65555;-64
2021/01/16 07:01:33;;;;;;;10.67;5.80;;;;;;;-5.18;80.97;99658.70;494264;1144;65184;-63
2021/01/16 07:11:45;;;;;;;12.90;7.57;;;;;;;-5.18;81.06;99663.83;493841;1144;65567;-63
2021/01/16 07:21:50;;;;;;;12.33;6.67;;;;;;;-4.96;81.25;99665.55;493557;1144;65127;-63
2021/01/16 07:31:58;;;;;;;11.17;7.63;;;;;;;-4.72;81.07;99658.72;493677;1144;65150;-62
2021/01/16 07:42:12;;;;;;;12.50;7.17;;;;;;;-4.58;81.42;99657.85;493597;1144;65193;-58
2021/01/16 07:52:24;;;;;;;14.00;8.30;;;;;;;-4.39;81.55;99654.38;494107;1144;65156;-59
2021/01/16 08:02:29;;;;;;;12.10;7.95;;;;;;;-4.39;81.96;99636.44;493513;1144;65184;-57
2021/01/16 08:12:37;;;;;;;11.87;9.33;;;;;;;-4.14;81.43;99638.97;494355;1143;65124;-55
2021/01/16 08:22:42;;;;;;;11.10;7.63;;;;;;;-4.05;81.44;99634.64;493473;1144;65873;-52
2021/01/16 08:33:04;;;;;;;11.83;8.40;;;;;;;-4.06;80.76;99628.67;511441;1143;63102;-55
2021/01/16 08:43:08;;;;;;;7.10;5.65;;;;;;;-3.85;80.79;99625.16;494089;1143;65136;-60
2021/01/16 08:53:22;;;;;;;8.83;6.07;;;;;;;-3.87;80.66;99621.75;493381;1144;65118;-55
2021/01/16 09:03:26;;;;;;;7.20;5.20;;;;;;;-3.27;81.48;99609.44;493143;1144;65474;-56
2021/01/16 09:13:32;;;;;;;6.80;5.50;;;;;;;-2.75;80.51;99600.45;492802;1144;65162;-57
2021/01/16 09:23:39;;;;;;;7.00;5.63;;;;;;;-2.78;80.08;99591.91;493133;1144;65350;-56
2021/01/16 09:33:45;;;;;;;8.40;7.20;;;;;;;-2.64;79.90;99586.65;494646;1144;65190;-57
2021/01/16 09:43:49;;;;;;;8.67;5.83;;;;;;;-2.74;79.67;99576.45;493980;1144;65508;-57
2021/01/16 09:54:09;;;;;;;10.30;7.23;;;;;;;-2.60;80.30;99560.86;494794;1143;65305;-59
2021/01/16 10:04:23;;;;;;;13.07;8.03;;;;;;;-2.45;79.84;99551.30;494222;1144;65124;-52
2021/01/16 10:14:36;;;;;;;11.20;8.03;;;;;;;-2.42;79.94;99534.13;494123;1143;65210;-55
2021/01/16 10:24:44;;;;;;;12.07;8.87;;;;;;;-2.58;79.45;99518.02;494291;1144;65114;-54
2021/01/16 10:34:50;;;;;;;10.53;7.20;;;;;;;-2.42;79.70;99510.98;494144;1144;65120;-52
2021/01/16 10:45:03;;;;;;;7.70;6.90;;;;;;;-2.68;79.42;99506.13;493957;1143;65198;-55
2021/01/16 10:55:09;;;;;;;7.00;5.70;;;;;;;-2.97;79.79;99507.27;494104;1144;65237;-57
2021/01/16 11:05:25;;;;;;;8.20;6.13;;;;;;;-2.73;79.77;99483.05;494369;1143;65443;-61
2021/01/16 11:15:30;;;;;;;;;;;;;;;-2.38;79.06;99462.90;494457;1144;65140;-61
2021/01/16 11:25:45;;;;;;;8.87;5.70;;;;;;;-1.93;79.04;99459.72;493491;1143;65201;-59
2021/01/16 11:35:54;;;;;;;9.07;6.93;;;;;;;-1.85;78.50;99436.44;504341;1143;65115;-60
2021/01/16 11:46:06;;;;;;;11.63;7.53;;;;;;;-2.01;77.58;99420.38;493541;1144;65253;-61
2021/01/16 11:56:12;;;;;;;8.07;5.50;;;;;;;-2.39;76.72;99414.91;493852;1144;65693;-62
2021/01/16 12:06:17;;;;;;;6.03;4.87;;;;;;;-2.86;77.41;99427.52;494145;1144;65119;-60
2021/01/16 12:16:21;;;;;;;6.45;4.55;;;;;;;-2.98;76.50;99400.23;494130;1143;65210;-60
2021/01/16 12:26:27;;;;;;;12.73;7.70;;;;;;;-3.04;77.59;99382.34;494139;1142;65137;-51
2021/01/16 12:36:46;;;;;;;11.43;6.40;;;;;;;-3.12;76.95;99366.98;493787;1143;65120;-56
2021/01/16 12:46:52;;;;;;;12.55;7.20;;;;;;;-3.41;77.49;99356.17;494059;1143;65180;-61
2021/01/16 12:56:58;;;;;;;11.10;6.53;;;;;;;-3.59;76.92;99335.84;493290;1143;65497;-59
2021/01/16 13:07:02;;;;;;;11.97;7.53;;;;;;;-3.83;76.66;99333.48;507705;1143;65117;-59
2021/01/16 13:17:07;;;;;;;9.13;6.47;;;;;;;-3.73;76.83;99331.70;493513;1143;65475;-61
2021/01/16 13:27:22;;;;;;;10.68;7.62;;;;;;;-3.94;76.53;99322.48;493592;1144;65440;-60
2021/01/16 13:37:28;;;;;;;16.83;9.13;;;;;;;-4.41;77.83;99302.34;493559;1143;65191;-61
2021/01/16 13:47:33;;;;;;;10.23;7.13;;;;;;;-4.72;77.66;99299.16;494318;1144;65637;-60
2021/01/16 13:57:38;;;;;;;8.90;6.80;;;;;;;-4.84;77.94;99297.53;493543;1144;65184;-60
2021/01/16 14:07:42;;;;;;;10.33;6.27;;;;;;;-5.02;78.49;99301.88;493353;1144;65134;-61
2021/01/16 14:17:46;;;;;;;13.25;7.45;;;;;;;-5.18;78.50;99277.22;493830;1144;65597;-57
2021/01/16 14:27:50;;;;;;;9.87;5.43;;;;;;;-5.39;79.22;99267.05;493957;1143;65254;-59
2021/01/16 14:38:00;;;;;;;16.50;8.00;;;;;;;-5.69;78.70;99252.67;493963;1144;65137;-60
2021/01/16 14:48:12;;;;;;;10.10;5.15;;;;;;;-5.85;79.84;99245.05;493807;1144;65237;-60
2021/01/16 14:58:19;;;;;;;11.80;6.77;;;;;;;-5.94;79.70;99225.48;493903;1144;65153;-61
2021/01/16 15:08:23;;;;;;;13.20;8.20;;;;;;;-5.95;80.07;99212.69;494151;1144;65120;-60
2021/01/16 15:18:27;;;;;;;19.57;9.27;;;;;;;-5.96;80.89;99183.70;493573;1142;65114;-59
2021/01/16 15:28:35;;;;;;;14.73;9.97;;;;;;;-5.95;81.16;99190.52;494106;1144;65505;-59
2021/01/16 15:38:40;;;;;;;17.15;9.70;;;;;;;-5.88;81.86;99190.50;493374;1144;65210;-60
2021/01/16 15:48:47;;;;;;;15.38;8.40;;;;;;;-5.92;81.78;99175.18;493901;1144;65136;-61
2021/01/16 15:58:51;;;;;;;16.03;7.60;;;;;;;-5.97;81.76;99161.55;493666;1144;65212;-61
2021/01/16 16:08:57;;;;;;;17.47;9.10;;;;;;;-5.85;82.82;99152.99;493408;1143;65210;-60
2021/01/16 16:19:02;;;;;;;16.80;11.13;;;;;;;-5.73;82.61;99131.61;494198;1143;65145;-59
2021/01/16 16:29:06;;;;;;;13.27;8.53;;;;;;;-5.68;82.07;99140.13;485724;1144;10003716;-58
2021/01/16 16:39:10;;;;;;;14.63;8.10;;;;;;;-5.66;82.13;99110.27;493007;1143;65114;-62
2021/01/16 16:49:13;;;;;;;14.25;8.95;;;;;;;-5.59;82.33;99110.24;494396;1143;65134;-59
2021/01/16 16:59:17;;;;;;;15.80;8.17;;;;;;;-5.47;81.96;99096.50;493179;1143;65753;-64
2021/01/16 17:09:21;;;;;;;15.60;9.10;;;;;;;-5.39;83.15;99087.08;493031;1144;65217;-59
2021/01/16 17:19:26;;;;;;;19.00;11.53;;;;;;;-5.31;83.04;99084.45;492946;1144;65165;-61
2021/01/16 17:29:30;;;;;;;15.43;9.70;;;;;;;-5.27;82.94;99088.68;493561;1143;65663;-55
2021/01/16 17:39:34;;;;;;;13.80;9.15;;;;;;;-5.24;82.85;99081.00;493547;1143;65212;-62
2021/01/16 17:49:39;;;;;;;15.20;7.53;;;;;;;-5.16;82.78;99078.37;493152;1144;65146;-59
2021/01/16 17:59:43;;;;;;;10.70;6.77;;;;;;;-5.08;82.96;99068.89;493456;1143;65120;-58
2021/01/16 18:09:47;;;;;;;13.80;8.33;;;;;;;-5.03;83.32;99043.25;493347;1143;65140;-60
2021/01/16 18:19:51;;;;;;;14.40;7.75;;;;;;;-5.01;83.28;99029.58;493163;1143;65210;-61
2021/01/16 18:29:55;;;;;;;17.80;7.55;;;;;;;-4.94;83.31;99030.36;493676;1143;65115;-61
2021/01/16 18:39:59;;;;;;;15.53;9.23;;;;;;;-4.90;82.65;99024.37;494086;1144;65536;-62
2021/01/16 18:50:04;;;;;;;10.73;7.03;;;;;;;-4.80;83.26;99023.38;493306;1144;65210;-57
2021/01/16 19:00:12;;;;;;;14.27;9.83;;;;;;;-4.77;82.82;99030.19;493344;1143;65215;-60
2021/01/16 19:10:16;;;;;;;15.07;8.67;;;;;;;-4.67;82.92;99026.67;493390;1143;65204;-59
2021/01/16 19:20:21;;;;;;;12.20;6.70;;;;;;;-4.66;82.55;99023.23;493383;1143;66496;-60
2021/01/16 19:30:28;;;;;;;9.80;7.00;;;;;;;-4.71;81.69;99030.14;493484;1143;65188;-63
2021/01/16 19:40:32;;;;;;;4.62;3.77;;;;;;;-4.87;81.02;99038.83;493179;1143;65098;-59
2021/01/16 19:50:37;;;;;;;6.10;4.10;;;;;;;-5.03;79.85;99043.25;493391;1143;65190;-60
2021/01/16 20:00:41;;;;;;;7.63;3.83;;;;;;;-5.51;79.07;99055.59;493124;1144;65239;-60
2021/01/16 20:10:45;;;;;;;9.37;4.63;;;;;;;-5.81;79.18;99083.06;493311;1143;65322;-60
2021/01/16 20:20:49;;;;;;;5.20;2.97;;;;;;;-6.27;79.54;99098.64;493665;1144;65178;-61
2021/01/16 20:30:53;;;;;;;6.17;3.63;;;;;;;-6.73;77.97;99120.88;493667;1143;65210;-61
2021/01/16 20:40:57;;;;;;;9.80;3.53;;;;;;;-6.91;78.07;99127.72;494201;1143;65593;-62
2021/01/16 20:51:01;;;;;;;4.87;3.37;;;;;;;-7.33;78.24;99114.09;494067;1144;65198;-62
2021/01/16 21:01:07;;;;;;;8.83;4.67;;;;;;;-7.46;78.34;99129.38;493831;1144;65295;-62
2021/01/16 21:11:11;;;;;;;7.03;4.47;;;;;;;-7.40;78.81;99140.43;493899;1143;65581;-62
2021/01/16 21:21:15;;;;;;;10.60;7.10;;;;;;;-7.57;78.90;99151.46;493729;1144;65214;-63
2021/01/16 21:31:18;;;;;;;9.80;4.70;;;;;;;-7.61;78.98;99160.80;494304;1143;65111;-61
2021/01/16 21:41:23;;;;;;;9.65;5.60;;;;;;;-7.73;78.49;99186.25;493937;1143;65506;-62
2021/01/16 21:51:35;;;;;;;9.40;5.27;;;;;;;-8.07;77.46;99194.62;494060;1144;65461;-61
2021/01/16 22:01:40;;;;;;;5.17;2.50;;;;;;;-8.18;76.62;99208.99;493679;1143;65208;-62
2021/01/16 22:11:44;;;;;;;;;;;;;;;-8.44;76.20;99212.20;493990;1144;65114;-63
2021/01/16 22:21:54;;;;;;;6.27;3.10;;;;;;;-8.59;77.05;99235.91;494441;1144;65114;-62
2021/01/16 22:31:58;;;;;;;6.30;4.67;;;;;;;-8.79;77.16;99243.36;493899;1143;65238;-62
2021/01/16 22:42:08;;;;;;;3.47;2.87;;;;;;;-8.92;76.58;99253.43;494174;1144;65749;-63
2021/01/16 22:52:13;;;;;;;8.70;5.40;;;;;;;-9.30;76.79;99248.81;494878;1143;65133;-63
2021/01/16 23:02:17;;;;;;;9.80;6.23;;;;;;;-9.51;76.47;99259.60;493927;1144;65116;-66
2021/01/16 23:12:21;;;;;;;16.27;5.83;;;;;;;-9.63;77.33;99266.24;494082;1144;65118;-63
2021/01/16 23:22:25;;;;;;;18.10;8.30;;;;;;;-9.83;76.75;99273.58;493179;1144;65261;-62
2021/01/16 23:32:31;;;;;;;17.57;6.60;;;;;;;-10.13;77.45;99278.26;493662;1144;65102;-62
2021/01/16 23:42:36;;;;;;;10.63;4.60;;;;;;;-10.24;77.18;99272.16;494205;1144;65261;-61
2021/01/16 23:52:41;;;;;;;5.33;2.95;;;;;;;-10.47;76.56;99279.47;493537;1143;65474;-61
